sensor_id;sensor_type;location;lat;lon;timestamp;pressure;altitude;pressure_sealevel;temperature;humidity
61554;BME280;47425;51.976;5.326;2023-02-02T00:01:01;101941.25;;;13.01;51.10
61554;BME280;47425;51.976;5.326;2023-02-02T00:03:27;101948.88;;;13.19;50.21
61554;BME280;47425;51.976;5.326;2023-02-02T00:05:55;101946.91;;;13.35;50.06
61554;BME280;47425;51.976;5.326;2023-02-02T00:08:22;101953.06;;;13.34;49.99
61554;BME280;47425;51.976;5.326;2023-02-02T00:10:50;101954.06;;;13.27;50.52
61554;BME280;47425;51.976;5.326;2023-02-02T00:13:16;101951.59;;;13.15;50.63
61554;BME280;47425;51.976;5.326;2023-02-02T00:15:43;101956.00;;;13.11;50.19
61554;BME280;47425;51.976;5.326;2023-02-02T00:18:11;101958.38;;;13.31;49.88
61554;BME280;47425;51.976;5.326;2023-02-02T00:20:37;101947.75;;;13.40;49.57
61554;BME280;47425;51.976;5.326;2023-02-02T00:23:05;101958.22;;;13.43;49.13
61554;BME280;47425;51.976;5.326;2023-02-02T00:25:33;101962.66;;;13.40;49.38
61554;BME280;47425;51.976;5.326;2023-02-02T00:28:00;101958.28;;;13.40;49.47
61554;BME280;47425;51.976;5.326;2023-02-02T00:30:26;101965.59;;;13.15;50.05
61554;BME280;47425;51.976;5.326;2023-02-02T00:32:53;101959.72;;;12.93;51.00
61554;BME280;47425;51.976;5.326;2023-02-02T00:35:22;101954.72;;;12.74;51.92
61554;BME280;47425;51.976;5.326;2023-02-02T00:37:49;101957.31;;;12.76;51.34
61554;BME280;47425;51.976;5.326;2023-02-02T00:40:17;101961.75;;;12.71;52.13
61554;BME280;47425;51.976;5.326;2023-02-02T00:42:46;101960.66;;;12.90;51.18
61554;BME280;47425;51.976;5.326;2023-02-02T00:45:15;101949.97;;;13.04;51.04
61554;BME280;47425;51.976;5.326;2023-02-02T00:47:41;101951.44;;;13.25;50.61
61554;BME280;47425;51.976;5.326;2023-02-02T00:50:09;101954.81;;;13.37;50.52
61554;BME280;47425;51.976;5.326;2023-02-02T00:52:38;101952.88;;;13.48;50.26
61554;BME280;47425;51.976;5.326;2023-02-02T00:55:06;101951.31;;;13.38;50.53
61554;BME280;47425;51.976;5.326;2023-02-02T00:57:34;101962.75;;;13.31;50.60
61554;BME280;47425;51.976;5.326;2023-02-02T01:00:04;101964.66;;;13.19;51.03
61554;BME280;47425;51.976;5.326;2023-02-02T01:02:32;101964.69;;;13.18;50.69
61554;BME280;47425;51.976;5.326;2023-02-02T01:04:59;101962.84;;;13.24;50.96
61554;BME280;47425;51.976;5.326;2023-02-02T01:07:26;101972.63;;;13.13;51.31
61554;BME280;47425;51.976;5.326;2023-02-02T01:09:55;101972.41;;;12.60;52.13
61554;BME280;47425;51.976;5.326;2023-02-02T01:12:22;101975.28;;;12.32;53.43
61554;BME280;47425;51.976;5.326;2023-02-02T01:14:50;101972.97;;;11.98;54.67
61554;BME280;47425;51.976;5.326;2023-02-02T01:17:16;101969.66;;;11.65;55.73
61554;BME280;47425;51.976;5.326;2023-02-02T01:19:44;101971.53;;;11.52;56.03
61554;BME280;47425;51.976;5.326;2023-02-02T01:22:11;101965.44;;;11.44;56.56
61554;BME280;47425;51.976;5.326;2023-02-02T01:24:38;101970.81;;;11.21;56.50
61554;BME280;47425;51.976;5.326;2023-02-02T01:27:06;101966.56;;;10.92;58.08
61554;BME280;47425;51.976;5.326;2023-02-02T01:29:32;101972.66;;;10.93;57.83
61554;BME280;47425;51.976;5.326;2023-02-02T01:32:03;101967.50;;;10.65;58.67
61554;BME280;47425;51.976;5.326;2023-02-02T01:34:30;101965.81;;;10.48;59.26
61554;BME280;47425;51.976;5.326;2023-02-02T01:36:58;101980.66;;;9.95;60.50
61554;BME280;47425;51.976;5.326;2023-02-02T01:39:24;101968.44;;;9.74;61.40
61554;BME280;47425;51.976;5.326;2023-02-02T01:41:51;101974.50;;;9.62;62.40
61554;BME280;47425;51.976;5.326;2023-02-02T01:45:00;101972.75;;;9.60;63.91
61554;BME280;47425;51.976;5.326;2023-02-02T01:47:33;101980.59;;;9.61;62.62
61554;BME280;47425;51.976;5.326;2023-02-02T01:50:04;101978.81;;;9.35;63.28
61554;BME280;47425;51.976;5.326;2023-02-02T01:52:32;101973.59;;;9.49;64.70
61554;BME280;47425;51.976;5.326;2023-02-02T01:55:02;101966.66;;;9.59;63.69
61554;BME280;47425;51.976;5.326;2023-02-02T01:57:36;101979.75;;;9.87;63.33
61554;BME280;47425;51.976;5.326;2023-02-02T02:00:08;101968.44;;;10.06;62.75
61554;BME280;47425;51.976;5.326;2023-02-02T02:02:44;101972.78;;;10.31;62.34
61554;BME280;47425;51.976;5.326;2023-02-02T02:05:17;101977.16;;;10.47;61.21
61554;BME280;47425;51.976;5.326;2023-02-02T02:07:46;101966.63;;;10.67;61.08
61554;BME280;47425;51.976;5.326;2023-02-02T02:10:15;101973.53;;;11.04;59.92
61554;BME280;47425;51.976;5.326;2023-02-02T02:12:42;101968.09;;;11.38;58.62
61554;BME280;47425;51.976;5.326;2023-02-02T02:15:10;101973.16;;;11.67;57.88
61554;BME280;47425;51.976;5.326;2023-02-02T02:18:05;101972.13;;;11.91;56.90
61554;BME280;47425;51.976;5.326;2023-02-02T02:21:21;101975.38;;;12.23;55.75
61554;BME280;47425;51.976;5.326;2023-02-02T02:24:51;101971.78;;;12.33;55.02
61554;BME280;47425;51.976;5.326;2023-02-02T02:31:11;101964.06;;;12.97;53.29
61554;BME280;47425;51.976;5.326;2023-02-02T02:33:47;101953.56;;;12.96;53.54
61554;BME280;47425;51.976;5.326;2023-02-02T02:36:18;101958.34;;;12.64;53.45
61554;BME280;47425;51.976;5.326;2023-02-02T02:38:56;101965.34;;;12.64;53.50
61554;BME280;47425;51.976;5.326;2023-02-02T02:41:29;101959.00;;;12.82;52.97
61554;BME280;47425;51.976;5.326;2023-02-02T02:44:04;101961.72;;;12.74;53.18
61554;BME280;47425;51.976;5.326;2023-02-02T02:46:33;101960.78;;;12.78;53.11
61554;BME280;47425;51.976;5.326;2023-02-02T02:49:02;101965.22;;;12.73;53.49
61554;BME280;47425;51.976;5.326;2023-02-02T02:51:41;101963.50;;;12.72;53.19
61554;BME280;47425;51.976;5.326;2023-02-02T02:57:28;101948.44;;;12.85;52.79
61554;BME280;47425;51.976;5.326;2023-02-02T03:00:10;101946.47;;;13.02;51.98
61554;BME280;47425;51.976;5.326;2023-02-02T03:02:47;101950.78;;;13.09;52.15
61554;BME280;47425;51.976;5.326;2023-02-02T03:05:46;101945.47;;;13.13;51.84
61554;BME280;47425;51.976;5.326;2023-02-02T03:08:19;101948.88;;;13.21;51.46
61554;BME280;47425;51.976;5.326;2023-02-02T03:10:51;101921.13;;;12.97;51.83
61554;BME280;47425;51.976;5.326;2023-02-02T03:13:18;101931.69;;;12.95;52.03
61554;BME280;47425;51.976;5.326;2023-02-02T03:15:45;101941.28;;;12.98;51.99
61554;BME280;47425;51.976;5.326;2023-02-02T03:18:16;101936.88;;;13.01;51.92
61554;BME280;47425;51.976;5.326;2023-02-02T03:20:45;101944.81;;;12.95;52.19
61554;BME280;47425;51.976;5.326;2023-02-02T03:23:12;101935.94;;;13.02;51.44
61554;BME280;47425;51.976;5.326;2023-02-02T03:25:39;101940.13;;;13.20;51.44
61554;BME280;47425;51.976;5.326;2023-02-02T03:28:08;101957.44;;;13.37;50.80
61554;BME280;47425;51.976;5.326;2023-02-02T03:30:35;101962.88;;;13.23;51.00
61554;BME280;47425;51.976;5.326;2023-02-02T03:33:04;101965.84;;;12.95;51.94
61554;BME280;47425;51.976;5.326;2023-02-02T03:35:32;101980.81;;;12.90;51.92
61554;BME280;47425;51.976;5.326;2023-02-02T03:38:00;101983.69;;;12.68;52.68
61554;BME280;47425;51.976;5.326;2023-02-02T03:40:26;101989.88;;;12.63;52.88
61554;BME280;47425;51.976;5.326;2023-02-02T03:42:53;101983.81;;;12.57;53.02
61554;BME280;47425;51.976;5.326;2023-02-02T03:45:21;101981.19;;;12.57;52.80
61554;BME280;47425;51.976;5.326;2023-02-02T03:47:48;101986.38;;;12.62;52.95
61554;BME280;47425;51.976;5.326;2023-02-02T03:50:15;101982.88;;;12.62;52.66
61554;BME280;47425;51.976;5.326;2023-02-02T03:52:41;101986.19;;;12.79;52.49
61554;BME280;47425;51.976;5.326;2023-02-02T03:55:11;101985.31;;;12.80;52.72
61554;BME280;47425;51.976;5.326;2023-02-02T03:57:37;101987.03;;;12.83;52.23
61554;BME280;47425;51.976;5.326;2023-02-02T04:00:05;101977.44;;;12.79;52.36
61554;BME280;47425;51.976;5.326;2023-02-02T04:02:37;101981.56;;;13.00;51.92
61554;BME280;47425;51.976;5.326;2023-02-02T04:05:05;101992.75;;;13.16;51.66
61554;BME280;47425;51.976;5.326;2023-02-02T04:07:32;101986.47;;;13.27;51.10
61554;BME280;47425;51.976;5.326;2023-02-02T04:09:58;101986.22;;;13.49;50.66
61554;BME280;47425;51.976;5.326;2023-02-02T04:12:28;101982.19;;;13.22;51.33
61554;BME280;47425;51.976;5.326;2023-02-02T04:14:54;101971.09;;;12.97;51.93
61554;BME280;47425;51.976;5.326;2023-02-02T04:17:21;101977.00;;;13.14;51.81
61554;BME280;47425;51.976;5.326;2023-02-02T04:19:47;101976.78;;;13.31;51.53
61554;BME280;47425;51.976;5.326;2023-02-02T04:22:15;101959.22;;;13.35;51.15
61554;BME280;47425;51.976;5.326;2023-02-02T04:24:42;101959.38;;;13.21;51.01
61554;BME280;47425;51.976;5.326;2023-02-02T04:27:08;101971.06;;;12.98;51.99
61554;BME280;47425;51.976;5.326;2023-02-02T04:29:37;101958.81;;;12.96;52.11
61554;BME280;47425;51.976;5.326;2023-02-02T04:32:06;101968.41;;;13.03;51.69
61554;BME280;47425;51.976;5.326;2023-02-02T04:34:32;101970.91;;;13.12;51.72
61554;BME280;47425;51.976;5.326;2023-02-02T04:36:59;101977.22;;;12.97;51.98
61554;BME280;47425;51.976;5.326;2023-02-02T04:39:27;101979.84;;;12.99;51.82
61554;BME280;47425;51.976;5.326;2023-02-02T04:41:55;101978.91;;;13.04;51.49
61554;BME280;47425;51.976;5.326;2023-02-02T04:44:21;101984.75;;;13.28;51.25
61554;BME280;47425;51.976;5.326;2023-02-02T04:46:49;101984.75;;;13.25;50.79
61554;BME280;47425;51.976;5.326;2023-02-02T04:49:17;101983.06;;;13.21;50.97
61554;BME280;47425;51.976;5.326;2023-02-02T04:51:44;101983.00;;;13.27;50.91
61554;BME280;47425;51.976;5.326;2023-02-02T04:54:10;101949.78;;;13.17;50.87
61554;BME280;47425;51.976;5.326;2023-02-02T04:56:38;101984.75;;;13.28;50.96
61554;BME280;47425;51.976;5.326;2023-02-02T04:59:05;101982.09;;;13.28;50.84
61554;BME280;47425;51.976;5.326;2023-02-02T05:01:31;101984.53;;;13.43;50.32
61554;BME280;47425;51.976;5.326;2023-02-02T05:03:59;101984.47;;;13.48;50.37
61554;BME280;47425;51.976;5.326;2023-02-02T05:06:46;101992.22;;;13.57;50.07
61554;BME280;47425;51.976;5.326;2023-02-02T05:09:13;101997.81;;;13.36;50.58
61554;BME280;47425;51.976;5.326;2023-02-02T05:11:40;101996.97;;;13.29;50.91
61554;BME280;47425;51.976;5.326;2023-02-02T05:14:09;101997.88;;;13.28;50.95
61554;BME280;47425;51.976;5.326;2023-02-02T05:16:36;102008.59;;;13.13;51.30
61554;BME280;47425;51.976;5.326;2023-02-02T05:19:05;102013.78;;;13.17;51.00
61554;BME280;47425;51.976;5.326;2023-02-02T05:21:31;102004.97;;;13.20;51.11
61554;BME280;47425;51.976;5.326;2023-02-02T05:23:58;102004.97;;;13.23;51.22
61554;BME280;47425;51.976;5.326;2023-02-02T05:26:26;102001.78;;;12.96;51.71
61554;BME280;47425;51.976;5.326;2023-02-02T05:28:55;102002.50;;;13.07;51.53
61554;BME280;47425;51.976;5.326;2023-02-02T05:31:21;102003.94;;;13.35;51.20
61554;BME280;47425;51.976;5.326;2023-02-02T05:33:49;102000.41;;;13.37;51.06
61554;BME280;47425;51.976;5.326;2023-02-02T05:36:17;102004.84;;;13.32;50.88
61554;BME280;47425;51.976;5.326;2023-02-02T05:38:44;102002.38;;;13.21;51.35
61554;BME280;47425;51.976;5.326;2023-02-02T05:41:10;102001.44;;;13.25;51.25
61554;BME280;47425;51.976;5.326;2023-02-02T05:43:37;101997.97;;;13.20;51.23
61554;BME280;47425;51.976;5.326;2023-02-02T05:46:03;101989.31;;;13.12;51.35
61554;BME280;47425;51.976;5.326;2023-02-02T05:48:30;101990.19;;;13.13;51.06
61554;BME280;47425;51.976;5.326;2023-02-02T05:51:02;101997.03;;;13.26;50.93
61554;BME280;47425;51.976;5.326;2023-02-02T05:53:33;101991.69;;;13.31;50.89
61554;BME280;47425;51.976;5.326;2023-02-02T05:55:59;101997.00;;;13.27;50.82
61554;BME280;47425;51.976;5.326;2023-02-02T05:58:26;101991.28;;;12.93;51.64
61554;BME280;47425;51.976;5.326;2023-02-02T06:00:54;102000.09;;;12.90;51.95
61554;BME280;47425;51.976;5.326;2023-02-02T06:03:21;102006.13;;;13.00;51.69
61554;BME280;47425;51.976;5.326;2023-02-02T06:05:47;102009.56;;;13.05;51.43
61554;BME280;47425;51.976;5.326;2023-02-02T06:08:15;102009.47;;;13.15;51.52
61554;BME280;47425;51.976;5.326;2023-02-02T06:10:43;102002.53;;;13.06;51.55
61554;BME280;47425;51.976;5.326;2023-02-02T06:13:10;102009.44;;;13.16;51.78
61554;BME280;47425;51.976;5.326;2023-02-02T06:15:37;102007.88;;;12.98;51.79
61554;BME280;47425;51.976;5.326;2023-02-02T06:18:04;102013.25;;;12.87;52.36
61554;BME280;47425;51.976;5.326;2023-02-02T06:20:32;102017.47;;;13.02;51.97
61554;BME280;47425;51.976;5.326;2023-02-02T06:22:59;102013.84;;;13.13;51.49
61554;BME280;47425;51.976;5.326;2023-02-02T06:25:26;102003.34;;;13.13;51.68
61554;BME280;47425;51.976;5.326;2023-02-02T06:27:56;102011.13;;;13.20;51.32
61554;BME280;47425;51.976;5.326;2023-02-02T06:30:23;102018.13;;;13.20;51.70
61554;BME280;47425;51.976;5.326;2023-02-02T06:32:49;102012.84;;;13.24;51.27
61554;BME280;47425;51.976;5.326;2023-02-02T06:35:18;102018.88;;;13.31;51.39
61554;BME280;47425;51.976;5.326;2023-02-02T06:37:45;102032.81;;;13.41;51.14
61554;BME280;47425;51.976;5.326;2023-02-02T06:40:11;102036.28;;;13.45;50.77
61554;BME280;47425;51.976;5.326;2023-02-02T06:42:38;102032.63;;;13.56;50.39
61554;BME280;47425;51.976;5.326;2023-02-02T06:45:09;102042.31;;;13.53;50.79
61554;BME280;47425;51.976;5.326;2023-02-02T06:47:36;102036.47;;;13.26;51.17
61554;BME280;47425;51.976;5.326;2023-02-02T06:50:03;102042.66;;;13.23;51.68
61554;BME280;47425;51.976;5.326;2023-02-02T06:52:29;102044.41;;;13.24;51.40
61554;BME280;47425;51.976;5.326;2023-02-02T06:54:57;102049.63;;;13.26;51.25
61554;BME280;47425;51.976;5.326;2023-02-02T06:57:24;102040.88;;;13.27;51.29
61554;BME280;47425;51.976;5.326;2023-02-02T06:59:50;102049.78;;;13.14;51.88
61554;BME280;47425;51.976;5.326;2023-02-02T07:02:19;102051.41;;;13.24;51.49
61554;BME280;47425;51.976;5.326;2023-02-02T07:04:47;102064.41;;;13.39;51.09
61554;BME280;47425;51.976;5.326;2023-02-02T07:07:14;102064.25;;;13.52;51.37
61554;BME280;47425;51.976;5.326;2023-02-02T07:09:41;102046.69;;;13.54;50.93
61554;BME280;47425;51.976;5.326;2023-02-02T07:12:08;102041.31;;;13.62;50.96
61554;BME280;47425;51.976;5.326;2023-02-02T07:14:35;102053.88;;;13.41;51.66
61554;BME280;47425;51.976;5.326;2023-02-02T07:17:02;102048.59;;;13.41;50.85
61554;BME280;47425;51.976;5.326;2023-02-02T07:19:30;102049.22;;;13.63;50.19
61554;BME280;47425;51.976;5.326;2023-02-02T07:21:58;102053.72;;;13.52;51.18
61554;BME280;47425;51.976;5.326;2023-02-02T07:24:24;102060.00;;;13.40;51.73
61554;BME280;47425;51.976;5.326;2023-02-02T07:26:53;102052.25;;;13.27;51.62
61554;BME280;47425;51.976;5.326;2023-02-02T07:29:23;102054.94;;;13.23;51.39
61554;BME280;47425;51.976;5.326;2023-02-02T07:31:50;102039.19;;;13.20;51.90
61554;BME280;47425;51.976;5.326;2023-02-02T07:34:16;102062.91;;;13.17;51.83
61554;BME280;47425;51.976;5.326;2023-02-02T07:36:44;102064.59;;;13.22;52.29
61554;BME280;47425;51.976;5.326;2023-02-02T07:39:12;102079.63;;;13.11;52.93
61554;BME280;47425;51.976;5.326;2023-02-02T07:41:39;102084.94;;;13.08;52.80
61554;BME280;47425;51.976;5.326;2023-02-02T07:44:15;102088.28;;;13.21;53.07
61554;BME280;47425;51.976;5.326;2023-02-02T07:46:42;102081.19;;;13.27;53.03
61554;BME280;47425;51.976;5.326;2023-02-02T07:49:11;102087.41;;;13.22;53.47
61554;BME280;47425;51.976;5.326;2023-02-02T07:51:38;102040.44;;;12.89;53.53
61554;BME280;47425;51.976;5.326;2023-02-02T07:54:07;102092.59;;;13.28;53.56
61554;BME280;47425;51.976;5.326;2023-02-02T07:56:36;102100.34;;;13.42;52.93
61554;BME280;47425;51.976;5.326;2023-02-02T07:59:03;102102.88;;;13.51;52.76
61554;BME280;47425;51.976;5.326;2023-02-02T08:01:30;102094.88;;;13.57;52.71
61554;BME280;47425;51.976;5.326;2023-02-02T08:03:57;102108.69;;;13.76;52.55
61554;BME280;47425;51.976;5.326;2023-02-02T08:06:27;102108.56;;;13.86;52.36
61554;BME280;47425;51.976;5.326;2023-02-02T08:08:55;102108.78;;;13.69;52.45
61554;BME280;47425;51.976;5.326;2023-02-02T08:11:24;102111.34;;;13.73;52.46
61554;BME280;47425;51.976;5.326;2023-02-02T08:13:53;102083.44;;;13.60;52.69
61554;BME280;47425;51.976;5.326;2023-02-02T08:16:23;102098.88;;;13.88;51.88
61554;BME280;47425;51.976;5.326;2023-02-02T08:18:49;102118.47;;;14.29;51.23
61554;BME280;47425;51.976;5.326;2023-02-02T08:21:17;102115.66;;;14.40;50.45
61554;BME280;47425;51.976;5.326;2023-02-02T08:23:44;102114.59;;;14.52;50.32
61554;BME280;47425;51.976;5.326;2023-02-02T08:26:15;102122.47;;;14.53;49.98
61554;BME280;47425;51.976;5.326;2023-02-02T08:28:45;102121.31;;;14.14;50.66
61554;BME280;47425;51.976;5.326;2023-02-02T08:31:16;102124.59;;;13.69;52.09
61554;BME280;47425;51.976;5.326;2023-02-02T08:33:45;102133.38;;;13.66;52.33
61554;BME280;47425;51.976;5.326;2023-02-02T08:36:12;102133.94;;;13.91;51.81
61554;BME280;47425;51.976;5.326;2023-02-02T08:38:39;102144.66;;;13.76;51.70
61554;BME280;47425;51.976;5.326;2023-02-02T08:41:07;102146.31;;;13.86;51.50
61554;BME280;47425;51.976;5.326;2023-02-02T08:43:35;102158.44;;;13.95;51.36
61554;BME280;47425;51.976;5.326;2023-02-02T08:46:04;102147.94;;;13.93;50.90
61554;BME280;47425;51.976;5.326;2023-02-02T08:48:31;102155.69;;;14.04;51.35
61554;BME280;47425;51.976;5.326;2023-02-02T08:50:59;102156.75;;;13.91;50.74
61554;BME280;47425;51.976;5.326;2023-02-02T08:53:27;102157.16;;;13.58;51.62
61554;BME280;47425;51.976;5.326;2023-02-02T08:55:57;102160.59;;;13.65;51.94
61554;BME280;47425;51.976;5.326;2023-02-02T08:58:25;102170.13;;;13.77;51.77
61554;BME280;47425;51.976;5.326;2023-02-02T09:00:53;102170.03;;;13.82;51.72
61554;BME280;47425;51.976;5.326;2023-02-02T09:03:21;102165.56;;;13.88;51.46
61554;BME280;47425;51.976;5.326;2023-02-02T09:05:48;102133.38;;;13.66;51.67
61554;BME280;47425;51.976;5.326;2023-02-02T09:08:14;102170.84;;;13.88;51.17
61554;BME280;47425;51.976;5.326;2023-02-02T09:10:42;102169.84;;;13.97;51.10
61554;BME280;47425;51.976;5.326;2023-02-02T09:13:09;102171.66;;;13.93;51.71
61554;BME280;47425;51.976;5.326;2023-02-02T09:15:35;102174.00;;;14.15;51.48
61554;BME280;47425;51.976;5.326;2023-02-02T09:18:04;102168.44;;;14.35;51.07
61554;BME280;47425;51.976;5.326;2023-02-02T09:20:32;102181.84;;;14.20;50.81
61554;BME280;47425;51.976;5.326;2023-02-02T09:22:58;102186.00;;;14.36;50.95
61554;BME280;47425;51.976;5.326;2023-02-02T09:25:25;102195.50;;;14.47;50.67
61554;BME280;47425;51.976;5.326;2023-02-02T09:27:53;102187.34;;;14.62;50.35
61554;BME280;47425;51.976;5.326;2023-02-02T09:30:20;102197.09;;;14.58;49.94
61554;BME280;47425;51.976;5.326;2023-02-02T09:32:49;102190.25;;;14.43;49.92
61554;BME280;47425;51.976;5.326;2023-02-02T09:35:17;102195.59;;;14.40;50.76
61554;BME280;47425;51.976;5.326;2023-02-02T09:37:45;102204.28;;;14.47;50.64
61554;BME280;47425;51.976;5.326;2023-02-02T09:40:14;102209.81;;;14.29;50.59
61554;BME280;47425;51.976;5.326;2023-02-02T09:43:01;102216.97;;;14.19;50.65
61554;BME280;47425;51.976;5.326;2023-02-02T09:45:38;102221.50;;;14.09;50.91
61554;BME280;47425;51.976;5.326;2023-02-02T09:48:16;102214.97;;;14.38;50.61
61554;BME280;47425;51.976;5.326;2023-02-02T09:50:49;102216.72;;;14.39;50.50
61554;BME280;47425;51.976;5.326;2023-02-02T09:53:26;102211.09;;;14.64;49.72
61554;BME280;47425;51.976;5.326;2023-02-02T09:55:57;102225.44;;;14.42;49.83
61554;BME280;47425;51.976;5.326;2023-02-02T09:58:30;102217.63;;;14.36;50.85
61554;BME280;47425;51.976;5.326;2023-02-02T10:01:02;102213.91;;;14.50;50.47
61554;BME280;47425;51.976;5.326;2023-02-02T10:03:35;102217.97;;;14.74;49.81
61554;BME280;47425;51.976;5.326;2023-02-02T10:06:13;102231.16;;;14.74;49.66
61554;BME280;47425;51.976;5.326;2023-02-02T10:08:50;102217.06;;;14.76;49.77
61554;BME280;47425;51.976;5.326;2023-02-02T10:11:29;102232.19;;;14.65;50.18
61554;BME280;47425;51.976;5.326;2023-02-02T10:14:02;102242.97;;;14.43;50.37
61554;BME280;47425;51.976;5.326;2023-02-02T10:16:32;102234.28;;;14.38;50.60
61554;BME280;47425;51.976;5.326;2023-02-02T10:19:02;102241.97;;;14.54;50.31
61554;BME280;47425;51.976;5.326;2023-02-02T10:21:33;102248.78;;;14.70;50.44
61554;BME280;47425;51.976;5.326;2023-02-02T10:24:15;102245.16;;;14.77;50.07
61554;BME280;47425;51.976;5.326;2023-02-02T10:26:45;102245.88;;;14.87;49.66
61554;BME280;47425;51.976;5.326;2023-02-02T10:29:16;102246.69;;;14.92;49.79
61554;BME280;47425;51.976;5.326;2023-02-02T10:31:48;102245.78;;;14.95;49.56
61554;BME280;47425;51.976;5.326;2023-02-02T10:34:27;102246.50;;;15.03;49.37
61554;BME280;47425;51.976;5.326;2023-02-02T10:37:16;102250.81;;;15.09;49.21
61554;BME280;47425;51.976;5.326;2023-02-02T10:40:00;102258.06;;;14.94;49.84
61554;BME280;47425;51.976;5.326;2023-02-02T10:42:41;102272.91;;;15.03;49.28
61554;BME280;47425;51.976;5.326;2023-02-02T10:45:38;102266.19;;;14.82;49.72
61554;BME280;47425;51.976;5.326;2023-02-02T10:48:12;102268.94;;;14.76;49.68
61554;BME280;47425;51.976;5.326;2023-02-02T10:50:44;102261.06;;;14.71;49.47
61554;BME280;47425;51.976;5.326;2023-02-02T10:53:14;102263.78;;;14.67;50.25
61554;BME280;47425;51.976;5.326;2023-02-02T10:55:47;102264.69;;;14.66;49.53
61554;BME280;47425;51.976;5.326;2023-02-02T10:58:22;102271.69;;;14.68;50.06
61554;BME280;47425;51.976;5.326;2023-02-02T11:00:52;102268.19;;;14.65;50.00
61554;BME280;47425;51.976;5.326;2023-02-02T11:03:22;102268.25;;;14.60;49.67
61554;BME280;47425;51.976;5.326;2023-02-02T11:05:52;102257.88;;;14.49;49.80
61554;BME280;47425;51.976;5.326;2023-02-02T11:08:40;102260.38;;;14.57;50.26
61554;BME280;47425;51.976;5.326;2023-02-02T11:11:18;102238.47;;;14.53;49.78
61554;BME280;47425;51.976;5.326;2023-02-02T11:13:49;102264.28;;;14.93;49.28
61554;BME280;47425;51.976;5.326;2023-02-02T11:16:21;102263.53;;;14.85;49.51
61554;BME280;47425;51.976;5.326;2023-02-02T11:18:48;102247.31;;;14.49;50.26
61554;BME280;47425;51.976;5.326;2023-02-02T11:21:18;102254.47;;;14.41;50.23
61554;BME280;47425;51.976;5.326;2023-02-02T11:23:52;102264.16;;;14.37;50.47
61554;BME280;47425;51.976;5.326;2023-02-02T11:26:22;102253.69;;;14.31;51.08
61554;BME280;47425;51.976;5.326;2023-02-02T11:28:51;102266.34;;;14.03;51.55
61554;BME280;47425;51.976;5.326;2023-02-02T11:31:33;102267.16;;;14.09;51.18
61554;BME280;47425;51.976;5.326;2023-02-02T11:34:09;102255.59;;;14.21;51.29
61554;BME280;47425;51.976;5.326;2023-02-02T11:36:57;102252.84;;;14.31;50.70
61554;BME280;47425;51.976;5.326;2023-02-02T11:39:25;102249.09;;;14.47;50.67
61554;BME280;47425;51.976;5.326;2023-02-02T11:42:00;102253.31;;;14.59;49.90
61554;BME280;47425;51.976;5.326;2023-02-02T11:44:28;102252.47;;;14.57;50.06
61554;BME280;47425;51.976;5.326;2023-02-02T11:46:57;102254.44;;;14.42;50.88
61554;BME280;47425;51.976;5.326;2023-02-02T11:49:27;102258.13;;;14.29;50.32
61554;BME280;47425;51.976;5.326;2023-02-02T11:51:58;102252.75;;;14.35;50.53
61554;BME280;47425;51.976;5.326;2023-02-02T11:54:27;102258.94;;;14.34;50.69
61554;BME280;47425;51.976;5.326;2023-02-02T11:57:00;102271.38;;;14.23;50.49
61554;BME280;47425;51.976;5.326;2023-02-02T11:59:32;102257.34;;;14.22;50.67
61554;BME280;47425;51.976;5.326;2023-02-02T12:02:21;102251.94;;;14.33;50.15
61554;BME280;47425;51.976;5.326;2023-02-02T12:04:49;102244.84;;;14.38;50.31
61554;BME280;47425;51.976;5.326;2023-02-02T12:07:22;102249.19;;;14.41;50.28
61554;BME280;47425;51.976;5.326;2023-02-02T12:09:52;102236.09;;;14.35;50.05
61554;BME280;47425;51.976;5.326;2023-02-02T12:12:33;102235.09;;;14.45;50.06
61554;BME280;47425;51.976;5.326;2023-02-02T12:15:15;102242.75;;;14.60;49.89
61554;BME280;47425;51.976;5.326;2023-02-02T12:17:54;102248.91;;;14.61;49.58
61554;BME280;47425;51.976;5.326;2023-02-02T12:20:34;102253.31;;;14.59;49.62
61554;BME280;47425;51.976;5.326;2023-02-02T12:23:26;102256.50;;;14.84;49.62
61554;BME280;47425;51.976;5.326;2023-02-02T12:26:08;102251.41;;;14.72;49.49
61554;BME280;47425;51.976;5.326;2023-02-02T12:28:57;102252.22;;;14.75;49.57
61554;BME280;47425;51.976;5.326;2023-02-02T12:31:38;102245.31;;;14.68;50.05
61554;BME280;47425;51.976;5.326;2023-02-02T12:34:17;102248.94;;;14.58;49.95
61554;BME280;47425;51.976;5.326;2023-02-02T12:36:53;102251.56;;;14.61;50.35
61554;BME280;47425;51.976;5.326;2023-02-02T12:39:32;102252.53;;;14.52;50.31
61554;BME280;47425;51.976;5.326;2023-02-02T12:45:39;102252.69;;;14.41;51.16
61554;BME280;47425;51.976;5.326;2023-02-02T12:48:26;102243.13;;;14.34;51.25
61554;BME280;47425;51.976;5.326;2023-02-02T12:51:04;102248.44;;;14.30;51.58
61554;BME280;47425;51.976;5.326;2023-02-02T12:53:46;102253.88;;;14.19;51.92
61554;BME280;47425;51.976;5.326;2023-02-02T12:56:24;102252.91;;;14.24;51.46
61554;BME280;47425;51.976;5.326;2023-02-02T12:58:58;102244.06;;;14.30;51.89
61554;BME280;47425;51.976;5.326;2023-02-02T13:01:54;102253.50;;;14.47;51.27
61554;BME280;47425;51.976;5.326;2023-02-02T13:04:45;102251.63;;;14.55;50.76
61554;BME280;47425;51.976;5.326;2023-02-02T13:07:25;102248.59;;;14.84;50.15
61554;BME280;47425;51.976;5.326;2023-02-02T13:10:05;102241.31;;;15.00;49.51
61554;BME280;47425;51.976;5.326;2023-02-02T13:12:39;102237.66;;;15.07;48.89
61554;BME280;47425;51.976;5.326;2023-02-02T13:15:12;102240.13;;;15.17;49.32
61554;BME280;47425;51.976;5.326;2023-02-02T13:17:46;102235.91;;;15.06;49.63
61554;BME280;47425;51.976;5.326;2023-02-02T13:20:22;102243.38;;;14.81;50.17